sensor_id;sensor_type;location;lat;lon;timestamp;temperature;humidity
23102;DHT22;11720;51.214;22.574;2023-03-04T00:01:12;0.10;99.90
23102;DHT22;11720;51.214;22.574;2023-03-04T00:03:38;0.30;99.90
23102;DHT22;11720;51.214;22.574;2023-03-04T00:06:04;0.20;99.90
23102;DHT22;11720;51.214;22.574;2023-03-04T00:08:30;0.10;99.90
23102;DHT22;11720;51.214;22.574;2023-03-04T00:10:55;0.10;99.90
23102;DHT22;11720;51.214;22.574;2023-03-04T00:13:21;0.10;99.90
23102;DHT22;11720;51.214;22.574;2023-03-04T00:15:47;0.10;99.90
23102;DHT22;11720;51.214;22.574;2023-03-04T00:18:13;0.00;99.90
23102;DHT22;11720;51.214;22.574;2023-03-04T00:20:39;0.00;99.90
23102;DHT22;11720;51.214;22.574;2023-03-04T00:23:04;0.00;99.90
23102;DHT22;11720;51.214;22.574;2023-03-04T00:25:30;0.00;99.90
23102;DHT22;11720;51.214;22.574;2023-03-04T00:27:56;-0.10;99.90
23102;DHT22;11720;51.214;22.574;2023-03-04T00:30:22;0.00;99.90
23102;DHT22;11720;51.214;22.574;2023-03-04T00:32:48;-0.10;99.90
23102;DHT22;11720;51.214;22.574;2023-03-04T00:35:14;-0.10;99.90
23102;DHT22;11720;51.214;22.574;2023-03-04T00:37:40;-0.10;99.90
23102;DHT22;11720;51.214;22.574;2023-03-04T00:40:06;0.00;99.90
23102;DHT22;11720;51.214;22.574;2023-03-04T00:42:32;-0.10;99.90
23102;DHT22;11720;51.214;22.574;2023-03-04T00:44:58;0.00;99.90
23102;DHT22;11720;51.214;22.574;2023-03-04T00:47:24;0.00;99.90
23102;DHT22;11720;51.214;22.574;2023-03-04T00:49:49;0.00;99.90
23102;DHT22;11720;51.214;22.574;2023-03-04T00:52:15;0.10;99.90
23102;DHT22;11720;51.214;22.574;2023-03-04T00:54:41;0.00;99.90
23102;DHT22;11720;51.214;22.574;2023-03-04T00:57:06;0.00;99.90
23102;DHT22;11720;51.214;22.574;2023-03-04T00:59:32;0.00;99.90
23102;DHT22;11720;51.214;22.574;2023-03-04T01:01:58;0.00;99.90
23102;DHT22;11720;51.214;22.574;2023-03-04T01:04:23;0.00;99.90
23102;DHT22;11720;51.214;22.574;2023-03-04T01:06:49;0.00;99.90
23102;DHT22;11720;51.214;22.574;2023-03-04T01:09:15;0.00;99.90
23102;DHT22;11720;51.214;22.574;2023-03-04T01:11:40;0.00;99.90
23102;DHT22;11720;51.214;22.574;2023-03-04T01:14:06;0.00;99.90
23102;DHT22;11720;51.214;22.574;2023-03-04T01:16:32;0.00;99.90
23102;DHT22;11720;51.214;22.574;2023-03-04T01:18:58;0.00;99.90
23102;DHT22;11720;51.214;22.574;2023-03-04T01:21:23;0.00;99.90
23102;DHT22;11720;51.214;22.574;2023-03-04T01:23:49;0.00;99.90
23102;DHT22;11720;51.214;22.574;2023-03-04T01:26:15;-0.10;99.90
23102;DHT22;11720;51.214;22.574;2023-03-04T01:28:40;0.00;99.90
23102;DHT22;11720;51.214;22.574;2023-03-04T01:31:06;0.10;99.90
23102;DHT22;11720;51.214;22.574;2023-03-04T01:33:32;0.10;99.90
23102;DHT22;11720;51.214;22.574;2023-03-04T01:35:57;0.10;99.90
23102;DHT22;11720;51.214;22.574;2023-03-04T01:38:23;0.00;99.90
23102;DHT22;11720;51.214;22.574;2023-03-04T01:40:49;0.10;99.90
23102;DHT22;11720;51.214;22.574;2023-03-04T01:43:27;0.10;99.90
23102;DHT22;11720;51.214;22.574;2023-03-04T01:45:54;0.00;99.90
23102;DHT22;11720;51.214;22.574;2023-03-04T01:48:24;0.00;99.90
23102;DHT22;11720;51.214;22.574;2023-03-04T01:50:51;0.00;99.90
23102;DHT22;11720;51.214;22.574;2023-03-04T01:53:21;0.00;99.90
23102;DHT22;11720;51.214;22.574;2023-03-04T01:55:47;-0.10;99.90
23102;DHT22;11720;51.214;22.574;2023-03-04T01:58:13;-0.10;99.90
23102;DHT22;11720;51.214;22.574;2023-03-04T02:00:39;-0.20;99.90
23102;DHT22;11720;51.214;22.574;2023-03-04T02:03:08;-0.20;99.90
23102;DHT22;11720;51.214;22.574;2023-03-04T02:05:37;-0.20;99.90
23102;DHT22;11720;51.214;22.574;2023-03-04T02:08:04;-0.10;99.90
23102;DHT22;11720;51.214;22.574;2023-03-04T02:10:31;-0.10;99.90
23102;DHT22;11720;51.214;22.574;2023-03-04T02:12:58;-0.10;99.90
23102;DHT22;11720;51.214;22.574;2023-03-04T02:15:24;-0.10;99.90
23102;DHT22;11720;51.214;22.574;2023-03-04T02:17:50;0.00;99.90
23102;DHT22;11720;51.214;22.574;2023-03-04T02:20:29;0.00;99.90
23102;DHT22;11720;51.214;22.574;2023-03-04T02:26:16;-0.10;99.90
23102;DHT22;11720;51.214;22.574;2023-03-04T02:28:43;1.30;99.90
23102;DHT22;11720;51.214;22.574;2023-03-04T02:31:34;-0.10;99.90
23102;DHT22;11720;51.214;22.574;2023-03-04T02:34:03;-0.10;99.90
23102;DHT22;11720;51.214;22.574;2023-03-04T02:36:29;-0.10;99.90
23102;DHT22;11720;51.214;22.574;2023-03-04T02:39:02;-0.10;99.90
23102;DHT22;11720;51.214;22.574;2023-03-04T02:41:29;-0.20;99.90
23102;DHT22;11720;51.214;22.574;2023-03-04T02:43:55;-0.10;99.90
23102;DHT22;11720;51.214;22.574;2023-03-04T02:46:21;0.10;99.90
23102;DHT22;11720;51.214;22.574;2023-03-04T02:48:49;-0.10;99.90
23102;DHT22;11720;51.214;22.574;2023-03-04T02:51:15;-0.10;99.90
23102;DHT22;11720;51.214;22.574;2023-03-04T02:53:41;-0.10;99.90
23102;DHT22;11720;51.214;22.574;2023-03-04T02:56:06;-0.10;99.90
23102;DHT22;11720;51.214;22.574;2023-03-04T02:58:32;-0.10;99.90
23102;DHT22;11720;51.214;22.574;2023-03-04T03:00:58;-0.10;99.90
23102;DHT22;11720;51.214;22.574;2023-03-04T03:03:24;-0.10;99.90
23102;DHT22;11720;51.214;22.574;2023-03-04T03:05:50;0.00;99.90
23102;DHT22;11720;51.214;22.574;2023-03-04T03:08:15;-0.10;99.90
23102;DHT22;11720;51.214;22.574;2023-03-04T03:10:41;0.00;99.90
23102;DHT22;11720;51.214;22.574;2023-03-04T03:13:07;0.50;99.90
23102;DHT22;11720;51.214;22.574;2023-03-04T03:15:32;0.00;99.90
23102;DHT22;11720;51.214;22.574;2023-03-04T03:17:58;0.00;99.90
23102;DHT22;11720;51.214;22.574;2023-03-04T03:20:23;0.00;99.90
23102;DHT22;11720;51.214;22.574;2023-03-04T03:22:49;0.00;99.90
23102;DHT22;11720;51.214;22.574;2023-03-04T03:25:15;0.00;99.90
23102;DHT22;11720;51.214;22.574;2023-03-04T03:27:41;0.00;99.90
23102;DHT22;11720;51.214;22.574;2023-03-04T03:30:09;-0.10;99.90
23102;DHT22;11720;51.214;22.574;2023-03-04T03:32:36;-0.10;99.90
23102;DHT22;11720;51.214;22.574;2023-03-04T03:35:02;-0.10;99.90
23102;DHT22;11720;51.214;22.574;2023-03-04T03:37:28;-0.10;99.90
23102;DHT22;11720;51.214;22.574;2023-03-04T03:39:53;0.00;99.90
23102;DHT22;11720;51.214;22.574;2023-03-04T03:42:19;-0.10;99.90
23102;DHT22;11720;51.214;22.574;2023-03-04T03:44:45;0.00;99.90
23102;DHT22;11720;51.214;22.574;2023-03-04T03:47:11;0.00;99.90
23102;DHT22;11720;51.214;22.574;2023-03-04T03:49:36;-0.10;99.90
23102;DHT22;11720;51.214;22.574;2023-03-04T03:52:03;0.00;99.90
23102;DHT22;11720;51.214;22.574;2023-03-04T03:54:28;-0.10;99.90
23102;DHT22;11720;51.214;22.574;2023-03-04T03:56:54;-0.10;99.90
23102;DHT22;11720;51.214;22.574;2023-03-04T03:59:19;-0.10;99.90
23102;DHT22;11720;51.214;22.574;2023-03-04T04:01:45;0.70;99.90
23102;DHT22;11720;51.214;22.574;2023-03-04T04:04:11;0.00;99.90
23102;DHT22;11720;51.214;22.574;2023-03-04T04:06:36;0.00;99.90
23102;DHT22;11720;51.214;22.574;2023-03-04T04:09:02;0.00;99.90
23102;DHT22;11720;51.214;22.574;2023-03-04T04:11:28;0.00;99.90
23102;DHT22;11720;51.214;22.574;2023-03-04T04:13:53;0.00;99.90
23102;DHT22;11720;51.214;22.574;2023-03-04T04:16:19;0.00;99.90
23102;DHT22;11720;51.214;22.574;2023-03-04T04:18:45;0.00;99.90
23102;DHT22;11720;51.214;22.574;2023-03-04T04:21:10;0.00;99.90
23102;DHT22;11720;51.214;22.574;2023-03-04T04:23:36;0.10;99.90
23102;DHT22;11720;51.214;22.574;2023-03-04T04:26:02;0.10;99.90
23102;DHT22;11720;51.214;22.574;2023-03-04T04:28:28;0.00;99.90
23102;DHT22;11720;51.214;22.574;2023-03-04T04:30:53;0.10;99.90
23102;DHT22;11720;51.214;22.574;2023-03-04T04:33:19;0.10;99.90
23102;DHT22;11720;51.214;22.574;2023-03-04T04:35:45;0.10;99.90
23102;DHT22;11720;51.214;22.574;2023-03-04T04:38:10;0.10;99.90
23102;DHT22;11720;51.214;22.574;2023-03-04T04:40:36;0.10;99.90
23102;DHT22;11720;51.214;22.574;2023-03-04T04:43:02;0.20;99.90
23102;DHT22;11720;51.214;22.574;2023-03-04T04:45:28;0.30;99.90
23102;DHT22;11720;51.214;22.574;2023-03-04T04:47:54;0.30;99.90
23102;DHT22;11720;51.214;22.574;2023-03-04T04:50:22;0.30;99.90
23102;DHT22;11720;51.214;22.574;2023-03-04T04:52:48;0.20;99.90
23102;DHT22;11720;51.214;22.574;2023-03-04T04:55:14;0.30;99.90
23102;DHT22;11720;51.214;22.574;2023-03-04T04:57:40;0.30;99.90
23102;DHT22;11720;51.214;22.574;2023-03-04T05:00:06;0.30;99.90
23102;DHT22;11720;51.214;22.574;2023-03-04T05:02:32;0.20;99.90
23102;DHT22;11720;51.214;22.574;2023-03-04T05:05:02;0.30;99.90
23102;DHT22;11720;51.214;22.574;2023-03-04T05:07:28;0.30;99.90
23102;DHT22;11720;51.214;22.574;2023-03-04T05:09:54;0.30;99.90
23102;DHT22;11720;51.214;22.574;2023-03-04T05:12:20;1.80;99.90
23102;DHT22;11720;51.214;22.574;2023-03-04T05:14:45;0.30;99.90
23102;DHT22;11720;51.214;22.574;2023-03-04T05:17:11;0.30;99.90
23102;DHT22;11720;51.214;22.574;2023-03-04T05:19:37;0.30;99.90
23102;DHT22;11720;51.214;22.574;2023-03-04T05:22:02;0.40;99.90
23102;DHT22;11720;51.214;22.574;2023-03-04T05:24:28;0.40;99.90
23102;DHT22;11720;51.214;22.574;2023-03-04T05:26:54;0.40;99.90
23102;DHT22;11720;51.214;22.574;2023-03-04T05:29:19;0.40;99.90
23102;DHT22;11720;51.214;22.574;2023-03-04T05:31:45;0.50;99.90
23102;DHT22;11720;51.214;22.574;2023-03-04T05:34:11;0.50;99.90
23102;DHT22;11720;51.214;22.574;2023-03-04T05:36:36;0.50;99.90
23102;DHT22;11720;51.214;22.574;2023-03-04T05:39:02;0.40;99.90
23102;DHT22;11720;51.214;22.574;2023-03-04T05:41:28;0.40;99.90
23102;DHT22;11720;51.214;22.574;2023-03-04T05:43:54;0.40;99.90
23102;DHT22;11720;51.214;22.574;2023-03-04T05:46:20;0.40;99.90
23102;DHT22;11720;51.214;22.574;2023-03-04T05:48:50;0.40;99.90
23102;DHT22;11720;51.214;22.574;2023-03-04T05:51:17;0.30;99.90
23102;DHT22;11720;51.214;22.574;2023-03-04T05:53:43;1.60;99.90
23102;DHT22;11720;51.214;22.574;2023-03-04T05:56:14;0.50;99.90
23102;DHT22;11720;51.214;22.574;2023-03-04T05:58:40;0.50;99.90
23102;DHT22;11720;51.214;22.574;2023-03-04T06:01:06;0.60;99.90
23102;DHT22;11720;51.214;22.574;2023-03-04T06:03:32;0.60;99.90
23102;DHT22;11720;51.214;22.574;2023-03-04T06:05:59;0.50;99.90
23102;DHT22;11720;51.214;22.574;2023-03-04T06:08:25;0.50;99.90
23102;DHT22;11720;51.214;22.574;2023-03-04T06:10:53;0.50;99.90
23102;DHT22;11720;51.214;22.574;2023-03-04T06:13:19;0.50;99.90
23102;DHT22;11720;51.214;22.574;2023-03-04T06:15:45;0.50;99.90
23102;DHT22;11720;51.214;22.574;2023-03-04T06:18:10;0.60;99.90
23102;DHT22;11720;51.214;22.574;2023-03-04T06:20:37;0.60;99.90
23102;DHT22;11720;51.214;22.574;2023-03-04T06:23:03;0.60;99.90
23102;DHT22;11720;51.214;22.574;2023-03-04T06:25:29;0.50;99.90
23102;DHT22;11720;51.214;22.574;2023-03-04T06:27:55;0.50;99.90
23102;DHT22;11720;51.214;22.574;2023-03-04T06:30:22;0.60;99.90
23102;DHT22;11720;51.214;22.574;2023-03-04T06:32:48;0.60;99.90
23102;DHT22;11720;51.214;22.574;2023-03-04T06:35:15;0.60;99.90
23102;DHT22;11720;51.214;22.574;2023-03-04T06:37:41;0.70;99.90
23102;DHT22;11720;51.214;22.574;2023-03-04T06:40:08;0.70;99.90
23102;DHT22;11720;51.214;22.574;2023-03-04T06:42:35;0.70;99.90
23102;DHT22;11720;51.214;22.574;2023-03-04T06:45:01;0.60;99.90
23102;DHT22;11720;51.214;22.574;2023-03-04T06:47:27;0.70;99.90
23102;DHT22;11720;51.214;22.574;2023-03-04T06:49:53;0.70;99.90
23102;DHT22;11720;51.214;22.574;2023-03-04T06:52:19;0.70;99.90
23102;DHT22;11720;51.214;22.574;2023-03-04T06:54:44;0.70;99.90
23102;DHT22;11720;51.214;22.574;2023-03-04T06:57:10;0.70;99.90
23102;DHT22;11720;51.214;22.574;2023-03-04T06:59:38;0.70;99.90
23102;DHT22;11720;51.214;22.574;2023-03-04T07:02:04;0.70;99.90
23102;DHT22;11720;51.214;22.574;2023-03-04T07:04:29;0.70;99.90
23102;DHT22;11720;51.214;22.574;2023-03-04T07:06:55;0.80;99.90
23102;DHT22;11720;51.214;22.574;2023-03-04T07:09:21;0.80;99.90
23102;DHT22;11720;51.214;22.574;2023-03-04T07:11:46;0.80;99.90
23102;DHT22;11720;51.214;22.574;2023-03-04T07:14:13;0.80;99.90
23102;DHT22;11720;51.214;22.574;2023-03-04T07:16:39;0.80;99.90
23102;DHT22;11720;51.214;22.574;2023-03-04T07:19:07;0.80;99.90
23102;DHT22;11720;51.214;22.574;2023-03-04T07:21:33;0.90;99.90
23102;DHT22;11720;51.214;22.574;2023-03-04T07:23:58;1.40;99.90
23102;DHT22;11720;51.214;22.574;2023-03-04T07:26:24;0.90;99.90
23102;DHT22;11720;51.214;22.574;2023-03-04T07:28:50;0.90;99.90
23102;DHT22;11720;51.214;22.574;2023-03-04T07:31:25;0.80;99.90
23102;DHT22;11720;51.214;22.574;2023-03-04T07:33:56;0.90;99.90
23102;DHT22;11720;51.214;22.574;2023-03-04T07:36:21;0.90;99.90
23102;DHT22;11720;51.214;22.574;2023-03-04T07:38:48;0.90;99.90
23102;DHT22;11720;51.214;22.574;2023-03-04T07:41:15;0.90;99.90
23102;DHT22;11720;51.214;22.574;2023-03-04T07:43:41;1.00;99.90
23102;DHT22;11720;51.214;22.574;2023-03-04T07:46:07;0.90;99.90
23102;DHT22;11720;51.214;22.574;2023-03-04T07:48:33;1.00;99.90
23102;DHT22;11720;51.214;22.574;2023-03-04T07:53:32;1.00;99.90
23102;DHT22;11720;51.214;22.574;2023-03-04T07:55:58;1.00;99.90
23102;DHT22;11720;51.214;22.574;2023-03-04T07:58:24;1.00;99.90
23102;DHT22;11720;51.214;22.574;2023-03-04T08:00:50;1.00;99.90
23102;DHT22;11720;51.214;22.574;2023-03-04T08:03:16;1.00;99.90
23102;DHT22;11720;51.214;22.574;2023-03-04T08:05:41;1.00;99.90
23102;DHT22;11720;51.214;22.574;2023-03-04T08:08:07;1.00;99.90
23102;DHT22;11720;51.214;22.574;2023-03-04T08:10:33;1.00;99.90
23102;DHT22;11720;51.214;22.574;2023-03-04T08:13:00;1.00;99.90
23102;DHT22;11720;51.214;22.574;2023-03-04T08:15:26;1.00;99.90
23102;DHT22;11720;51.214;22.574;2023-03-04T08:17:52;1.10;99.90
23102;DHT22;11720;51.214;22.574;2023-03-04T08:20:18;1.00;99.90
23102;DHT22;11720;51.214;22.574;2023-03-04T08:22:44;1.00;99.90
23102;DHT22;11720;51.214;22.574;2023-03-04T08:25:09;1.10;99.90
23102;DHT22;11720;51.214;22.574;2023-03-04T08:27:35;1.00;99.90
23102;DHT22;11720;51.214;22.574;2023-03-04T08:30:03;1.10;99.90
23102;DHT22;11720;51.214;22.574;2023-03-04T08:32:29;1.10;99.90
23102;DHT22;11720;51.214;22.574;2023-03-04T08:34:54;1.10;99.90
23102;DHT22;11720;51.214;22.574;2023-03-04T08:37:21;1.00;99.90
23102;DHT22;11720;51.214;22.574;2023-03-04T08:39:47;1.10;99.90
23102;DHT22;11720;51.214;22.574;2023-03-04T08:42:13;2.50;99.90
23102;DHT22;11720;51.214;22.574;2023-03-04T08:44:38;1.10;99.90
23102;DHT22;11720;51.214;22.574;2023-03-04T08:47:04;1.00;99.90
23102;DHT22;11720;51.214;22.574;2023-03-04T08:49:33;1.10;99.90
23102;DHT22;11720;51.214;22.574;2023-03-04T08:51:59;1.10;99.90
23102;DHT22;11720;51.214;22.574;2023-03-04T08:54:24;1.10;99.90
23102;DHT22;11720;51.214;22.574;2023-03-04T08:56:50;1.10;99.90
23102;DHT22;11720;51.214;22.574;2023-03-04T08:59:16;1.10;99.90
23102;DHT22;11720;51.214;22.574;2023-03-04T09:01:41;1.10;99.90
23102;DHT22;11720;51.214;22.574;2023-03-04T09:04:07;1.20;99.90
23102;DHT22;11720;51.214;22.574;2023-03-04T09:06:33;1.10;99.90
23102;DHT22;11720;51.214;22.574;2023-03-04T09:08:58;1.10;99.90
23102;DHT22;11720;51.214;22.574;2023-03-04T09:11:24;1.10;99.90
23102;DHT22;11720;51.214;22.574;2023-03-04T09:13:50;1.20;99.90
23102;DHT22;11720;51.214;22.574;2023-03-04T09:16:16;1.20;99.90
23102;DHT22;11720;51.214;22.574;2023-03-04T09:18:42;1.20;99.90
23102;DHT22;11720;51.214;22.574;2023-03-04T09:21:08;1.30;99.90
23102;DHT22;11720;51.214;22.574;2023-03-04T09:23:35;1.30;99.90
23102;DHT22;11720;51.214;22.574;2023-03-04T09:26:01;1.30;99.90
23102;DHT22;11720;51.214;22.574;2023-03-04T09:28:26;1.30;99.90
23102;DHT22;11720;51.214;22.574;2023-03-04T09:30:52;1.30;99.90
23102;DHT22;11720;51.214;22.574;2023-03-04T09:33:18;1.30;99.90
23102;DHT22;11720;51.214;22.574;2023-03-04T09:35:43;1.30;99.90
23102;DHT22;11720;51.214;22.574;2023-03-04T09:38:09;1.30;99.90
23102;DHT22;11720;51.214;22.574;2023-03-04T09:40:44;1.30;99.90
23102;DHT22;11720;51.214;22.574;2023-03-04T09:43:21;1.30;99.90
23102;DHT22;11720;51.214;22.574;2023-03-04T09:45:52;1.40;99.90
23102;DHT22;11720;51.214;22.574;2023-03-04T09:48:22;1.40;99.90
23102;DHT22;11720;51.214;22.574;2023-03-04T09:54:30;1.40;99.90
23102;DHT22;11720;51.214;22.574;2023-03-04T09:56:38;1.40;99.90
23102;DHT22;11720;51.214;22.574;2023-03-04T10:01:53;1.40;99.90
23102;DHT22;11720;51.214;22.574;2023-03-04T10:04:33;1.50;99.90
23102;DHT22;11720;51.214;22.574;2023-03-04T10:07:02;1.50;99.90
23102;DHT22;11720;51.214;22.574;2023-03-04T10:12:12;1.50;99.90
23102;DHT22;11720;51.214;22.574;2023-03-04T10:14:44;1.50;99.90
23102;DHT22;11720;51.214;22.574;2023-03-04T10:17:36;1.50;99.90
23102;DHT22;11720;51.214;22.574;2023-03-04T10:20:12;1.50;99.90
23102;DHT22;11720;51.214;22.574;2023-03-04T10:22:50;1.50;99.90
23102;DHT22;11720;51.214;22.574;2023-03-04T10:25:22;1.50;99.90
23102;DHT22;11720;51.214;22.574;2023-03-04T10:33:21;1.60;99.90
23102;DHT22;11720;51.214;22.574;2023-03-04T10:36:00;1.50;99.90
23102;DHT22;11720;51.214;22.574;2023-03-04T10:38:30;1.60;99.90
23102;DHT22;11720;51.214;22.574;2023-03-04T10:40:57;1.60;99.90
23102;DHT22;11720;51.214;22.574;2023-03-04T10:43:23;1.50;99.90
23102;DHT22;11720;51.214;22.574;2023-03-04T10:45:57;1.50;99.90
23102;DHT22;11720;51.214;22.574;2023-03-04T10:48:28;1.50;99.90
23102;DHT22;11720;51.214;22.574;2023-03-04T10:53:40;1.50;99.90
23102;DHT22;11720;51.214;22.574;2023-03-04T11:01:57;1.50;99.90
23102;DHT22;11720;51.214;22.574;2023-03-04T11:04:23;1.50;99.90
23102;DHT22;11720;51.214;22.574;2023-03-04T11:06:52;1.50;99.90
23102;DHT22;11720;51.214;22.574;2023-03-04T11:09:27;1.60;99.90
23102;DHT22;11720;51.214;22.574;2023-03-04T11:12:01;1.60;99.90
23102;DHT22;11720;51.214;22.574;2023-03-04T11:16:56;1.60;99.90
23102;DHT22;11720;51.214;22.574;2023-03-04T11:19:34;1.60;99.90
23102;DHT22;11720;51.214;22.574;2023-03-04T11:22:03;1.60;99.90
23102;DHT22;11720;51.214;22.574;2023-03-04T11:24:31;1.60;99.90
23102;DHT22;11720;51.214;22.574;2023-03-04T11:27:09;1.70;99.90
23102;DHT22;11720;51.214;22.574;2023-03-04T11:29:45;1.70;99.90
23102;DHT22;11720;51.214;22.574;2023-03-04T11:32:23;1.60;99.90
23102;DHT22;11720;51.214;22.574;2023-03-04T11:35:26;1.70;99.90
23102;DHT22;11720;51.214;22.574;2023-03-04T11:38:11;1.70;99.90
23102;DHT22;11720;51.214;22.574;2023-03-04T11:40:49;1.70;99.90
23102;DHT22;11720;51.214;22.574;2023-03-04T11:43:21;1.70;99.90
23102;DHT22;11720;51.214;22.574;2023-03-04T11:57:47;1.70;99.90
23102;DHT22;11720;51.214;22.574;2023-03-04T12:00:26;1.70;99.90
23102;DHT22;11720;51.214;22.574;2023-03-04T12:05:48;1.70;99.90
23102;DHT22;11720;51.214;22.574;2023-03-04T12:11:54;1.80;99.90
23102;DHT22;11720;51.214;22.574;2023-03-04T12:14:33;1.80;99.90
23102;DHT22;11720;51.214;22.574;2023-03-04T12:20:23;1.80;99.90
23102;DHT22;11720;51.214;22.574;2023-03-04T12:28:21;1.90;99.90
23102;DHT22;11720;51.214;22.574;2023-03-04T12:51:22;2.00;99.90
23102;DHT22;11720;51.214;22.574;2023-03-04T12:59:01;2.00;99.90
23102;DHT22;11720;51.214;22.574;2023-03-04T13:01:45;2.00;99.90
23102;DHT22;11720;51.214;22.574;2023-03-04T13:09:30;2.10;99.90
23102;DHT22;11720;51.214;22.574;2023-03-04T13:12:18;2.10;99.90
23102;DHT22;11720;51.214;22.574;2023-03-04T13:20:31;2.10;99.90
23102;DHT22;11720;51.214;22.574;2023-03-04T13:25:30;2.20;99.90
23102;DHT22;11720;51.214;22.574;2023-03-04T13:38:36;2.20;99.90
23102;DHT22;11720;51.214;22.574;2023-03-04T13:51:24;2.30;99.90
23102;DHT22;11720;51.214;22.574;2023-03-04T13:53:54;2.30;99.90
23102;DHT22;11720;51.214;22.574;2023-03-04T14:04:33;2.40;99.90
23102;DHT22;11720;51.214;22.574;2023-03-04T14:07:01;2.40;99.90
23102;DHT22;11720;51.214;22.574;2023-03-04T14:09:29;2.40;99.90
23102;DHT22;11720;51.214;22.574;2023-03-04T14:12:01;2.40;99.90
23102;DHT22;11720;51.214;22.574;2023-03-04T14:14:32;2.50;99.90
23102;DHT22;11720;51.214;22.574;2023-03-04T14:17:02;2.50;99.90
23102;DHT22;11720;51.214;22.574;2023-03-04T14:19:31;2.50;99.90
23102;DHT22;11720;51.214;22.574;2023-03-04T14:21:59;2.50;99.90
23102;DHT22;11720;51.214;22.574;2023-03-04T14:24:25;2.50;99.90
23102;DHT22;11720;51.214;22.574;2023-03-04T14:27:10;2.40;99.90
23102;DHT22;11720;51.214;22.574;2023-03-04T14:29:36;2.50;99.90
23102;DHT22;11720;51.214;22.574;2023-03-04T14:32:04;2.50;99.90
23102;DHT22;11720;51.214;22.574;2023-03-04T14:34:31;2.50;99.90
23102;DHT22;11720;51.214;22.574;2023-03-04T14:36:58;2.50;99.90
23102;DHT22;11720;51.214;22.574;2023-03-04T14:39:27;2.50;99.90
23102;DHT22;11720;51.214;22.574;2023-03-04T14:41:56;2.50;99.90
23102;DHT22;11720;51.214;22.574;2023-03-04T14:44:31;2.50;99.90
23102;DHT22;11720;51.214;22.574;2023-03-04T14:47:23;2.50;99.90
23102;DHT22;11720;51.214;22.574;2023-03-04T14:49:51;2.50;99.90
23102;DHT22;11720;51.214;22.574;2023-03-04T14:52:36;2.60;99.90
23102;DHT22;11720;51.214;22.574;2023-03-04T14:57:45;2.50;99.90
23102;DHT22;11720;51.214;22.574;2023-03-04T15:00:25;2.50;99.90
23102;DHT22;11720;51.214;22.574;2023-03-04T15:02:59;2.40;99.90
23102;DHT22;11720;51.214;22.574;2023-03-04T15:05:30;2.30;99.90
23102;DHT22;11720;51.214;22.574;2023-03-04T15:08:21;2.30;99.90
23102;DHT22;11720;51.214;22.574;2023-03-04T15:11:21;2.30;99.90
23102;DHT22;11720;51.214;22.574;2023-03-04T15:13:53;2.30;99.90
23102;DHT22;11720;51.214;22.574;2023-03-04T15:16:23;2.30;99.90
23102;DHT22;11720;51.214;22.574;2023-03-04T15:19:02;2.80;99.90
23102;DHT22;11720;51.214;22.574;2023-03-04T15:23:55;2.20;99.90
23102;DHT22;11720;51.214;22.574;2023-03-04T15:26:21;2.20;99.90
23102;DHT22;11720;51.214;22.574;2023-03-04T15:28:47;2.20;99.90
23102;DHT22;11720;51.214;22.574;2023-03-04T15:31:20;2.20;99.90
23102;DHT22;11720;51.214;22.574;2023-03-04T15:33:46;2.20;99.90
23102;DHT22;11720;51.214;22.574;2023-03-04T15:36:18;2.30;99.90
23102;DHT22;11720;51.214;22.574;2023-03-04T15:38:51;2.30;99.90
23102;DHT22;11720;51.214;22.574;2023-03-04T15:41:22;2.30;99.90
23102;DHT22;11720;51.214;22.574;2023-03-04T15:43:48;2.30;99.90
23102;DHT22;11720;51.214;22.574;2023-03-04T15:46:14;2.30;99.90
23102;DHT22;11720;51.214;22.574;2023-03-04T15:48:40;2.40;99.90
23102;DHT22;11720;51.214;22.574;2023-03-04T15:51:12;2.40;99.90
23102;DHT22;11720;51.214;22.574;2023-03-04T15:53:44;2.30;99.90
23102;DHT22;11720;51.214;22.574;2023-03-04T15:56:25;2.30;99.90
23102;DHT22;11720;51.214;22.574;2023-03-04T16:01:22;2.40;99.90
23102;DHT22;11720;51.214;22.574;2023-03-04T16:03:48;2.40;99.90
23102;DHT22;11720;51.214;22.574;2023-03-04T16:06:15;2.30;99.90
23102;DHT22;11720;51.214;22.574;2023-03-04T16:08:43;2.20;99.90
23102;DHT22;11720;51.214;22.574;2023-03-04T16:11:20;1.90;99.90
23102;DHT22;11720;51.214;22.574;2023-03-04T16:13:47;1.90;99.90
23102;DHT22;11720;51.214;22.574;2023-03-04T16:16:13;1.80;99.90
23102;DHT22;11720;51.214;22.574;2023-03-04T16:18:39;1.70;99.90
23102;DHT22;11720;51.214;22.574;2023-03-04T16:21:09;1.80;99.90
23102;DHT22;11720;51.214;22.574;2023-03-04T16:23:42;1.70;99.90
23102;DHT22;11720;51.214;22.574;2023-03-04T16:26:14;1.70;99.90
23102;DHT22;11720;51.214;22.574;2023-03-04T16:28:41;1.70;99.90
23102;DHT22;11720;51.214;22.574;2023-03-04T16:31:09;1.70;99.90
23102;DHT22;11720;51.214;22.574;2023-03-04T16:33:35;1.70;99.90
23102;DHT22;11720;51.214;22.574;2023-03-04T16:36:01;1.70;99.90
23102;DHT22;11720;51.214;22.574;2023-03-04T16:38:30;1.80;99.90
23102;DHT22;11720;51.214;22.574;2023-03-04T16:40:58;1.70;99.90
23102;DHT22;11720;51.214;22.574;2023-03-04T16:43:26;1.80;99.90
23102;DHT22;11720;51.214;22.574;2023-03-04T16:45:52;1.80;99.90
23102;DHT22;11720;51.214;22.574;2023-03-04T16:48:18;1.80;99.90
23102;DHT22;11720;51.214;22.574;2023-03-04T16:50:45;1.80;99.90
23102;DHT22;11720;51.214;22.574;2023-03-04T16:53:35;1.90;99.90
23102;DHT22;11720;51.214;22.574;2023-03-04T16:56:09;1.90;99.90
23102;DHT22;11720;51.214;22.574;2023-03-04T16:58:36;1.80;99.90
23102;DHT22;11720;51.214;22.574;2023-03-04T17:01:02;1.80;99.90
23102;DHT22;11720;51.214;22.574;2023-03-04T17:03:28;1.80;99.90
23102;DHT22;11720;51.214;22.574;2023-03-04T17:05:54;1.80;99.90
23102;DHT22;11720;51.214;22.574;2023-03-04T17:08:20;1.70;99.90
23102;DHT22;11720;51.214;22.574;2023-03-04T17:10:46;1.80;99.90
23102;DHT22;11720;51.214;22.574;2023-03-04T17:13:13;1.80;99.90
23102;DHT22;11720;51.214;22.574;2023-03-04T17:15:39;1.80;99.90
23102;DHT22;11720;51.214;22.574;2023-03-04T17:18:07;1.80;99.90
23102;DHT22;11720;51.214;22.574;2023-03-04T17:20:33;1.80;99.90
23102;DHT22;11720;51.214;22.574;2023-03-04T17:23:00;1.80;99.90
23102;DHT22;11720;51.214;22.574;2023-03-04T17:25:25;1.90;99.90
23102;DHT22;11720;51.214;22.574;2023-03-04T17:27:51;1.90;99.90
23102;DHT22;11720;51.214;22.574;2023-03-04T17:30:17;1.90;99.90
23102;DHT22;11720;51.214;22.574;2023-03-04T17:32:42;1.80;99.90
23102;DHT22;11720;51.214;22.574;2023-03-04T17:35:09;1.80;99.90
23102;DHT22;11720;51.214;22.574;2023-03-04T17:37:35;1.90;99.90
23102;DHT22;11720;51.214;22.574;2023-03-04T17:40:06;1.90;99.90
23102;DHT22;11720;51.214;22.574;2023-03-04T17:42:33;1.90;99.90
23102;DHT22;11720;51.214;22.574;2023-03-04T17:44:59;1.80;99.90
23102;DHT22;11720;51.214;22.574;2023-03-04T17:47:25;1.60;99.90
23102;DHT22;11720;51.214;22.574;2023-03-04T17:49:50;1.80;99.90